createdAt,value
2023-03-19T00:00:08.714Z,0.00
2023-03-19T00:01:08.712Z,0.00
2023-03-19T00:02:17.061Z,0.00
2023-03-19T00:03:08.753Z,0.00
2023-03-19T00:04:08.680Z,0.00
2023-03-19T00:05:13.677Z,0.00
2023-03-19T00:06:08.654Z,0.00
2023-03-19T00:07:08.632Z,0.00
2023-03-19T00:08:08.630Z,0.00
2023-03-19T00:09:08.616Z,0.00
2023-03-19T00:10:08.624Z,0.00
2023-03-19T00:11:08.587Z,0.00
2023-03-19T00:12:08.600Z,0.00
2023-03-19T00:13:08.579Z,0.00
2023-03-19T00:14:08.565Z,0.00
2023-03-19T00:15:08.545Z,0.00
2023-03-19T00:16:13.618Z,0.00
2023-03-19T00:17:08.522Z,0.00
2023-03-19T00:18:08.525Z,0.00
2023-03-19T00:19:08.510Z,0.00
2023-03-19T00:20:08.493Z,0.00
2023-03-19T00:21:08.480Z,0.00
2023-03-19T00:22:08.500Z,0.00
2023-03-19T00:23:08.470Z,0.00
2023-03-19T00:24:08.444Z,0.00
2023-03-19T00:25:08.562Z,0.00
2023-03-19T00:26:08.426Z,0.00
2023-03-19T00:27:13.452Z,0.00
2023-03-19T00:28:08.431Z,0.00
2023-03-19T00:29:08.405Z,0.00
2023-03-19T00:30:08.378Z,0.00
2023-03-19T00:31:08.409Z,0.00
2023-03-19T00:32:08.372Z,0.00
2023-03-19T00:33:08.448Z,0.00
2023-03-19T00:34:08.348Z,0.00
2023-03-19T00:35:08.371Z,0.00
2023-03-19T00:36:08.357Z,0.00
2023-03-19T00:37:08.307Z,0.00
2023-03-19T00:38:13.327Z,0.00
2023-03-19T00:39:08.275Z,0.00
2023-03-19T00:40:08.269Z,0.00
2023-03-19T00:41:08.257Z,0.00
2023-03-19T00:42:08.244Z,0.00
2023-03-19T00:43:08.261Z,0.00
2023-03-19T00:44:08.222Z,0.00
2023-03-19T00:45:08.207Z,0.00
2023-03-19T00:46:08.264Z,0.00
2023-03-19T00:47:08.190Z,0.00
2023-03-19T00:48:08.185Z,0.00
2023-03-19T00:49:13.190Z,0.00
2023-03-19T00:50:08.165Z,0.00
2023-03-19T00:51:08.150Z,0.00
2023-03-19T00:52:08.157Z,0.00
2023-03-19T00:53:08.127Z,0.00
2023-03-19T00:54:08.113Z,0.00
2023-03-19T00:55:08.096Z,0.00
2023-03-19T00:56:08.088Z,0.00
2023-03-19T00:57:08.082Z,0.00
2023-03-19T00:58:08.097Z,0.00
2023-03-19T00:59:08.071Z,0.00
2023-03-19T01:00:13.069Z,0.00
2023-03-19T01:01:08.076Z,0.00
2023-03-19T01:02:08.022Z,0.00
2023-03-19T01:03:08.019Z,0.00
2023-03-19T01:04:08.034Z,0.00
2023-03-19T01:05:07.989Z,0.00
2023-03-19T01:06:07.972Z,0.00
2023-03-19T01:07:07.959Z,0.00
2023-03-19T01:08:07.961Z,0.00
2023-03-19T01:09:07.948Z,0.00
2023-03-19T01:10:07.960Z,0.00
2023-03-19T01:11:12.937Z,0.00
2023-03-19T01:12:07.903Z,0.00
2023-03-19T01:13:07.908Z,0.00
2023-03-19T01:14:07.884Z,0.00
2023-03-19T01:15:07.890Z,0.00
2023-03-19T01:16:07.887Z,0.00
2023-03-19T01:17:07.843Z,0.00
2023-03-19T01:18:07.851Z,0.00
2023-03-19T01:19:07.823Z,0.00
2023-03-19T01:20:07.811Z,0.00
2023-03-19T01:21:07.802Z,0.00
2023-03-19T01:22:12.843Z,0.00
2023-03-19T01:23:07.788Z,0.00
2023-03-19T01:24:07.769Z,0.00
2023-03-19T01:25:07.757Z,0.00
2023-03-19T01:26:07.745Z,0.00
2023-03-19T01:27:07.736Z,0.00
2023-03-19T01:28:07.824Z,0.00
2023-03-19T01:29:07.719Z,0.00
2023-03-19T01:30:07.699Z,0.00
2023-03-19T01:31:07.793Z,0.00
2023-03-19T01:32:07.682Z,0.00
2023-03-19T01:33:12.803Z,0.00
2023-03-19T01:34:07.668Z,0.00
2023-03-19T01:35:07.654Z,0.00
2023-03-19T01:36:07.700Z,0.00
2023-03-19T01:37:07.633Z,0.00
2023-03-19T01:38:07.618Z,0.00
2023-03-19T01:39:07.633Z,0.00
2023-03-19T01:40:07.603Z,0.00
2023-03-19T01:41:07.603Z,0.00
2023-03-19T01:42:07.575Z,0.00
2023-03-19T01:43:07.568Z,0.00
2023-03-19T01:44:12.563Z,0.00
2023-03-19T01:45:07.530Z,0.00
2023-03-19T01:46:07.608Z,0.00
2023-03-19T01:47:07.529Z,0.00
2023-03-19T01:48:07.511Z,0.00
2023-03-19T01:49:07.491Z,0.00
2023-03-19T01:50:07.477Z,0.00
2023-03-19T01:51:07.532Z,0.00
2023-03-19T01:52:07.494Z,0.00
2023-03-19T01:53:07.452Z,0.00
2023-03-19T01:54:07.430Z,0.00
2023-03-19T01:55:12.451Z,0.00
2023-03-19T01:56:07.409Z,0.00
2023-03-19T01:57:07.402Z,0.00
2023-03-19T01:58:07.414Z,0.00
2023-03-19T01:59:07.376Z,0.00
2023-03-19T02:00:07.374Z,0.00
2023-03-19T02:01:07.356Z,0.00
2023-03-19T02:02:07.340Z,0.00
2023-03-19T02:03:07.469Z,0.00
2023-03-19T02:04:07.431Z,0.00
2023-03-19T02:05:07.309Z,0.00
2023-03-19T02:06:12.342Z,0.00
2023-03-19T02:07:07.303Z,0.00
2023-03-19T02:08:07.283Z,0.00
2023-03-19T02:09:07.262Z,0.00
2023-03-19T02:10:07.290Z,0.00
2023-03-19T02:11:07.245Z,0.00
2023-03-19T02:12:07.230Z,0.00
2023-03-19T02:13:07.292Z,0.00
2023-03-19T02:14:07.205Z,0.00
2023-03-19T02:15:07.199Z,0.00
2023-03-19T02:16:07.203Z,0.00
2023-03-19T02:17:12.196Z,0.00
2023-03-19T02:18:07.160Z,0.00
2023-03-19T02:19:07.181Z,0.00
2023-03-19T02:20:07.141Z,0.00
2023-03-19T02:21:07.124Z,0.00
2023-03-19T02:22:07.131Z,0.00
2023-03-19T02:23:07.121Z,0.00
2023-03-19T02:24:07.103Z,0.00
2023-03-19T02:25:07.079Z,0.00
2023-03-19T02:26:07.074Z,0.00
2023-03-19T02:27:07.066Z,0.00
2023-03-19T02:28:12.116Z,0.00
2023-03-19T02:29:07.045Z,0.00
2023-03-19T02:30:07.031Z,0.00
2023-03-19T02:31:07.101Z,0.00
2023-03-19T02:32:07.004Z,0.00
2023-03-19T02:33:07.139Z,0.00
2023-03-19T02:34:07.017Z,0.00
2023-03-19T02:35:06.991Z,0.00
2023-03-19T02:36:06.995Z,0.00
2023-03-19T02:37:06.956Z,0.00
2023-03-19T02:38:06.941Z,0.00
2023-03-19T02:39:11.958Z,0.00
2023-03-19T02:40:06.936Z,0.00
2023-03-19T02:41:06.903Z,0.00
2023-03-19T02:42:06.893Z,0.00
2023-03-19T02:43:06.880Z,0.00
2023-03-19T02:44:06.885Z,0.00
2023-03-19T02:45:06.857Z,0.00
2023-03-19T02:46:06.863Z,0.00
2023-03-19T02:47:06.835Z,0.00
2023-03-19T02:48:06.825Z,0.00
2023-03-19T02:49:06.824Z,0.00
2023-03-19T02:50:11.837Z,0.00
2023-03-19T02:51:06.792Z,0.00
2023-03-19T02:52:06.795Z,0.00
2023-03-19T02:53:06.767Z,0.00
2023-03-19T02:54:06.761Z,0.00
2023-03-19T02:55:06.753Z,0.00
2023-03-19T02:56:06.747Z,0.00
2023-03-19T02:57:06.722Z,0.00
2023-03-19T02:58:06.726Z,0.00
2023-03-19T02:59:06.719Z,0.00
2023-03-19T03:00:06.694Z,0.00
2023-03-19T03:01:11.745Z,0.00
2023-03-19T03:02:06.726Z,0.00
2023-03-19T03:03:06.670Z,0.00
2023-03-19T03:04:06.677Z,0.00
2023-03-19T03:05:06.641Z,0.00
2023-03-19T03:06:06.647Z,0.00
2023-03-19T03:07:06.619Z,0.00
2023-03-19T03:08:06.606Z,0.00
2023-03-19T03:09:06.604Z,0.00
2023-03-19T03:10:06.612Z,0.00
2023-03-19T03:11:06.576Z,0.00
2023-03-19T03:12:11.586Z,0.00
2023-03-19T03:13:06.551Z,0.00
2023-03-19T03:14:06.552Z,0.00
2023-03-19T03:15:06.531Z,0.00
2023-03-19T03:16:06.618Z,0.00
2023-03-19T03:17:06.510Z,0.00
2023-03-19T03:18:06.494Z,0.00
2023-03-19T03:19:06.496Z,0.00
2023-03-19T03:20:06.476Z,0.00
2023-03-19T03:21:06.467Z,0.00
2023-03-19T03:22:06.472Z,0.00
2023-03-19T03:23:11.475Z,0.00
2023-03-19T03:24:06.441Z,0.00
2023-03-19T03:25:06.436Z,0.00
2023-03-19T03:26:06.409Z,0.00
2023-03-19T03:27:06.404Z,0.00
2023-03-19T03:28:06.409Z,0.00
2023-03-19T03:29:06.387Z,0.00
2023-03-19T03:30:06.360Z,0.00
2023-03-19T03:31:06.354Z,0.00
2023-03-19T03:32:06.338Z,0.00
2023-03-19T03:33:06.422Z,0.00
2023-03-19T03:34:11.376Z,0.00
2023-03-19T03:35:06.306Z,0.00
2023-03-19T03:36:06.295Z,0.00
2023-03-19T03:37:06.289Z,0.00
2023-03-19T03:38:06.292Z,0.00
2023-03-19T03:39:06.273Z,0.00
2023-03-19T03:40:06.270Z,0.00
2023-03-19T03:41:06.269Z,0.00
2023-03-19T03:42:06.232Z,0.00
2023-03-19T03:43:06.221Z,0.00
2023-03-19T03:44:06.226Z,0.00
2023-03-19T03:45:11.270Z,0.00
2023-03-19T03:46:06.274Z,0.00
2023-03-19T03:47:06.170Z,0.00
2023-03-19T03:48:06.160Z,0.00
2023-03-19T03:49:06.167Z,0.00
2023-03-19T03:50:06.169Z,0.00
2023-03-19T03:51:06.129Z,0.00
2023-03-19T03:52:06.138Z,0.00
2023-03-19T03:53:06.104Z,0.00
2023-03-19T03:54:06.123Z,0.00
2023-03-19T03:55:06.096Z,0.00
2023-03-19T03:56:11.094Z,0.00
2023-03-19T03:57:06.086Z,0.00
2023-03-19T03:58:06.072Z,0.00
2023-03-19T03:59:06.049Z,0.00
2023-03-19T04:00:06.022Z,0.00
2023-03-19T04:01:06.014Z,0.00
2023-03-19T04:02:06.087Z,0.00
2023-03-19T04:03:06.067Z,0.00
2023-03-19T04:04:05.997Z,0.00
2023-03-19T04:05:05.981Z,0.00
2023-03-19T04:06:05.957Z,0.00
2023-03-19T04:07:10.971Z,0.00
2023-03-19T04:08:05.935Z,0.00
2023-03-19T04:09:05.932Z,0.00
2023-03-19T04:10:05.952Z,0.00
2023-03-19T04:11:05.904Z,0.00
2023-03-19T04:12:05.891Z,0.00
2023-03-19T04:13:05.887Z,0.00
2023-03-19T04:14:05.871Z,0.00
2023-03-19T04:15:05.867Z,0.00
2023-03-19T04:16:05.871Z,0.00
2023-03-19T04:17:05.836Z,0.00
2023-03-19T04:18:10.852Z,0.00
2023-03-19T04:19:05.814Z,0.00
2023-03-19T04:20:05.816Z,0.00
2023-03-19T04:21:05.801Z,0.00
2023-03-19T04:22:05.795Z,0.00
2023-03-19T04:23:05.768Z,0.00
2023-03-19T04:24:05.758Z,0.00
2023-03-19T04:25:05.757Z,0.00
2023-03-19T04:26:05.763Z,0.00
2023-03-19T04:27:05.724Z,0.00
2023-03-19T04:28:05.734Z,0.00
2023-03-19T04:29:10.722Z,0.00
2023-03-19T04:30:05.695Z,0.00
2023-03-19T04:31:05.743Z,0.00
2023-03-19T04:32:05.672Z,0.00
2023-03-19T04:33:05.750Z,0.00
2023-03-19T04:34:05.675Z,0.00
2023-03-19T04:35:05.642Z,0.00
2023-03-19T04:36:05.647Z,0.00
2023-03-19T04:37:05.610Z,0.00
2023-03-19T04:38:05.605Z,0.00
2023-03-19T04:39:05.590Z,0.00
2023-03-19T04:40:10.643Z,0.00
2023-03-19T04:41:05.604Z,0.00
2023-03-19T04:42:05.572Z,0.00
2023-03-19T04:43:05.586Z,0.00
2023-03-19T04:44:05.532Z,0.00
2023-03-19T04:45:05.529Z,0.00
2023-03-19T04:46:05.567Z,0.00
2023-03-19T04:47:05.502Z,0.00
2023-03-19T04:48:05.486Z,0.00
2023-03-19T04:49:05.479Z,0.00
2023-03-19T04:50:05.472Z,0.00
2023-03-19T04:51:10.471Z,0.00
2023-03-19T04:52:05.469Z,0.00
2023-03-19T04:53:05.432Z,0.00
2023-03-19T04:54:05.420Z,0.00
2023-03-19T04:55:05.418Z,0.00
2023-03-19T04:56:05.396Z,0.00
2023-03-19T04:57:05.381Z,0.00
2023-03-19T04:58:05.400Z,0.00
2023-03-19T04:59:05.358Z,0.00
2023-03-19T05:00:05.355Z,0.00
2023-03-19T05:01:05.367Z,0.00
2023-03-19T05:02:10.345Z,0.00
2023-03-19T05:03:05.316Z,0.00
2023-03-19T05:04:05.365Z,0.00
2023-03-19T05:05:05.316Z,0.00
2023-03-19T05:06:05.284Z,0.00
2023-03-19T05:07:05.269Z,0.00
2023-03-19T05:08:05.256Z,0.00
2023-03-19T05:09:05.246Z,0.00
2023-03-19T05:10:05.274Z,0.00
2023-03-19T05:11:05.223Z,0.00
2023-03-19T05:12:05.213Z,0.00
2023-03-19T05:13:10.245Z,0.00
2023-03-19T05:14:05.205Z,0.00
2023-03-19T05:15:05.196Z,0.00
2023-03-19T05:16:05.210Z,0.00
2023-03-19T05:17:05.163Z,0.00
2023-03-19T05:18:05.144Z,0.00
2023-03-19T05:19:05.133Z,0.00
2023-03-19T05:20:05.150Z,0.00
2023-03-19T05:21:05.111Z,0.00
2023-03-19T05:22:05.116Z,0.00
2023-03-19T05:23:05.097Z,0.00
2023-03-19T05:24:10.100Z,0.00
2023-03-19T05:25:05.081Z,0.00
2023-03-19T05:26:05.052Z,0.00
2023-03-19T05:27:05.045Z,0.00
2023-03-19T05:28:05.058Z,0.00
2023-03-19T05:29:05.040Z,0.00
2023-03-19T05:30:05.023Z,0.00
2023-03-19T05:31:05.053Z,0.00
2023-03-19T05:32:04.991Z,0.00
2023-03-19T05:33:05.074Z,0.00
2023-03-19T05:34:04.981Z,0.00
2023-03-19T05:35:09.985Z,0.00
2023-03-19T05:36:04.992Z,0.00
2023-03-19T05:37:04.933Z,0.00
2023-03-19T05:38:04.922Z,5.62
2023-03-19T05:39:04.911Z,5.62
2023-03-19T05:40:04.944Z,5.62
2023-03-19T05:41:04.942Z,5.62
2023-03-19T05:42:04.884Z,5.62
2023-03-19T05:43:04.866Z,5.62
2023-03-19T05:44:04.861Z,5.62
2023-03-19T05:45:04.872Z,5.62
2023-03-19T05:46:09.923Z,5.62
2023-03-19T05:47:04.819Z,5.62
2023-03-19T05:48:04.810Z,5.62
2023-03-19T05:49:04.812Z,5.62
2023-03-19T05:50:04.796Z,5.62
2023-03-19T05:51:04.774Z,5.62
2023-03-19T05:52:04.789Z,5.62
2023-03-19T05:53:04.748Z,5.62
2023-03-19T05:54:04.739Z,5.62
2023-03-19T05:55:04.754Z,5.62
2023-03-19T05:56:04.722Z,11.25
2023-03-19T05:57:09.727Z,11.25
2023-03-19T05:58:04.714Z,11.25
2023-03-19T05:59:04.690Z,11.25
2023-03-19T06:00:04.684Z,11.25
2023-03-19T06:01:04.682Z,11.25
2023-03-19T06:02:04.653Z,16.88
2023-03-19T06:03:04.700Z,16.88
2023-03-19T06:04:06.218Z,16.88
2023-03-19T06:05:04.625Z,16.88
2023-03-19T06:06:04.605Z,16.88
2023-03-19T06:07:04.590Z,16.88
2023-03-19T06:08:09.604Z,16.88
2023-03-19T06:09:04.592Z,16.88
2023-03-19T06:10:04.597Z,16.88
2023-03-19T06:11:04.549Z,16.88
2023-03-19T06:12:04.534Z,16.88
2023-03-19T06:13:04.524Z,22.50
2023-03-19T06:14:04.514Z,22.50
2023-03-19T06:15:04.514Z,28.12
2023-03-19T06:16:04.571Z,28.12
2023-03-19T06:17:04.505Z,33.75
2023-03-19T06:18:04.470Z,33.75
2023-03-19T06:19:09.482Z,33.75
2023-03-19T06:20:04.457Z,39.38
2023-03-19T06:21:04.445Z,39.38
2023-03-19T06:22:04.450Z,39.38
2023-03-19T06:23:04.410Z,45.00
2023-03-19T06:24:04.403Z,45.00
2023-03-19T06:25:04.397Z,45.00
2023-03-19T06:26:04.390Z,45.00
2023-03-19T06:27:04.372Z,50.62
2023-03-19T06:28:04.382Z,50.62
2023-03-19T06:29:04.349Z,56.25
2023-03-19T06:30:09.365Z,56.25
2023-03-19T06:31:04.349Z,61.88
2023-03-19T06:32:04.316Z,61.88
2023-03-19T06:33:04.377Z,67.50
2023-03-19T06:34:04.302Z,73.12
2023-03-19T06:35:04.291Z,73.12
2023-03-19T06:36:04.275Z,78.75
2023-03-19T06:37:04.259Z,78.75
2023-03-19T06:38:04.255Z,78.75
2023-03-19T06:39:04.236Z,78.75
2023-03-19T06:40:04.256Z,78.75
2023-03-19T06:41:09.235Z,84.38
2023-03-19T06:42:04.242Z,90.00
2023-03-19T06:43:04.197Z,90.00
2023-03-19T06:44:04.182Z,90.00
2023-03-19T06:45:04.182Z,95.62
2023-03-19T06:46:04.196Z,95.62
2023-03-19T06:47:04.157Z,101.25
2023-03-19T06:48:04.141Z,106.88
2023-03-19T06:49:04.161Z,106.88
2023-03-19T06:50:04.119Z,112.50
2023-03-19T06:51:04.113Z,112.50
2023-03-19T06:52:09.137Z,118.12
2023-03-19T06:53:04.094Z,118.12
2023-03-19T06:54:04.091Z,123.75
2023-03-19T06:55:04.058Z,123.75
2023-03-19T06:56:04.060Z,123.75
2023-03-19T06:57:04.038Z,123.75
2023-03-19T06:58:04.055Z,118.12
2023-03-19T06:59:04.014Z,118.12
2023-03-19T07:00:04.009Z,112.50
2023-03-19T07:01:04.134Z,112.50
2023-03-19T07:02:03.990Z,112.50
2023-03-19T07:03:08.999Z,118.12
2023-03-19T07:04:03.996Z,118.12
2023-03-19T07:05:03.967Z,123.75
2023-03-19T07:06:03.951Z,129.38
2023-03-19T07:07:03.924Z,135.00
2023-03-19T07:08:03.929Z,146.25
2023-03-19T07:09:03.912Z,163.12
2023-03-19T07:10:03.915Z,163.12
2023-03-19T07:11:03.911Z,168.75
2023-03-19T07:12:03.870Z,174.38
2023-03-19T07:13:03.859Z,180.00
2023-03-19T07:14:08.872Z,180.00
2023-03-19T07:15:03.840Z,180.00
2023-03-19T07:16:03.850Z,180.00
2023-03-19T07:17:03.817Z,180.00
2023-03-19T07:18:03.805Z,180.00
2023-03-19T07:19:03.810Z,180.00
2023-03-19T07:20:03.779Z,174.38
2023-03-19T07:21:03.798Z,168.75
2023-03-19T07:22:03.769Z,163.12
2023-03-19T07:23:03.752Z,157.50
2023-03-19T07:24:03.734Z,157.50
2023-03-19T07:25:08.744Z,163.12
2023-03-19T07:26:03.723Z,168.75
2023-03-19T07:27:03.699Z,168.75
2023-03-19T07:28:03.730Z,168.75
2023-03-19T07:29:03.683Z,163.12
2023-03-19T07:30:03.672Z,157.50
2023-03-19T07:31:03.674Z,146.25
2023-03-19T07:32:03.671Z,140.62
2023-03-19T07:33:03.707Z,129.38
2023-03-19T07:34:03.645Z,123.75
2023-03-19T07:35:03.610Z,118.12
2023-03-19T07:36:08.649Z,112.50
2023-03-19T07:37:03.592Z,112.50
2023-03-19T07:38:03.578Z,112.50
2023-03-19T07:39:03.566Z,112.50
2023-03-19T07:40:03.590Z,112.50
2023-03-19T07:41:03.549Z,112.50
2023-03-19T07:42:03.550Z,112.50
2023-03-19T07:43:03.617Z,106.88
2023-03-19T07:44:03.511Z,106.88
2023-03-19T07:45:03.501Z,112.50
2023-03-19T07:46:03.568Z,118.12
2023-03-19T07:47:22.376Z,123.75
2023-03-19T07:48:03.469Z,129.38
2023-03-19T07:49:03.455Z,129.38
2023-03-19T07:50:03.444Z,129.38
2023-03-19T07:51:03.457Z,123.75
2023-03-19T07:52:03.447Z,123.75
2023-03-19T07:53:03.408Z,118.12
2023-03-19T07:54:03.405Z,118.12
2023-03-19T07:55:03.392Z,123.75
2023-03-19T07:56:03.393Z,123.75
2023-03-19T07:57:03.363Z,129.38
2023-03-19T07:58:08.437Z,129.38
2023-03-19T07:59:03.340Z,135.00
2023-03-19T08:00:03.332Z,140.62
2023-03-19T08:01:03.326Z,146.25
2023-03-19T08:02:03.354Z,151.88
2023-03-19T08:03:03.296Z,157.50
2023-03-19T08:04:03.363Z,168.75
2023-03-19T08:05:03.302Z,174.38
2023-03-19T08:06:03.287Z,174.38
2023-03-19T08:07:03.248Z,174.38
2023-03-19T08:08:03.263Z,180.00
2023-03-19T08:09:08.251Z,191.25
2023-03-19T08:10:03.253Z,208.12
2023-03-19T08:11:03.264Z,219.38
2023-03-19T08:12:03.195Z,230.62
2023-03-19T08:13:03.184Z,247.50
2023-03-19T08:14:03.205Z,258.75
2023-03-19T08:15:03.196Z,264.38
2023-03-19T08:16:03.159Z,270.00
2023-03-19T08:17:03.241Z,264.38
2023-03-19T08:18:03.176Z,264.38
2023-03-19T08:19:03.125Z,270.00
2023-03-19T08:20:08.128Z,275.62
2023-03-19T08:21:03.100Z,292.50
2023-03-19T08:22:03.083Z,303.75
2023-03-19T08:23:03.072Z,320.62
2023-03-19T08:24:04.946Z,348.75
2023-03-19T08:25:03.080Z,343.12
2023-03-19T08:26:03.054Z,337.50
2023-03-19T08:27:03.028Z,337.50
2023-03-19T08:28:03.017Z,360.00
2023-03-19T08:29:03.000Z,348.75
2023-03-19T08:30:03.013Z,354.38
2023-03-19T08:31:08.085Z,371.25
2023-03-19T08:32:02.990Z,376.88
2023-03-19T08:33:02.988Z,388.12
2023-03-19T08:34:02.951Z,405.00
2023-03-19T08:35:02.938Z,410.62
2023-03-19T08:36:03.024Z,438.75
2023-03-19T08:37:02.976Z,405.00
2023-03-19T08:38:02.905Z,399.38
2023-03-19T08:39:02.892Z,399.38
2023-03-19T08:40:02.910Z,399.38
2023-03-19T08:41:02.968Z,410.62
2023-03-19T08:42:07.887Z,416.25
2023-03-19T08:43:02.863Z,421.88
2023-03-19T08:44:02.837Z,416.25
2023-03-19T08:45:02.831Z,410.62
2023-03-19T08:46:02.880Z,410.62
2023-03-19T08:47:02.800Z,416.25
2023-03-19T08:48:02.794Z,427.50
2023-03-19T08:49:02.807Z,433.12
2023-03-19T08:50:02.772Z,450.00
2023-03-19T08:51:02.762Z,455.62
2023-03-19T08:52:02.783Z,472.50
2023-03-19T08:53:07.763Z,472.50
2023-03-19T08:54:02.722Z,455.62
2023-03-19T08:55:02.756Z,478.12
2023-03-19T08:56:02.755Z,433.12
2023-03-19T08:57:02.809Z,444.38
2023-03-19T08:58:02.756Z,427.50
2023-03-19T08:59:02.763Z,421.88
2023-03-19T09:00:02.663Z,416.25
2023-03-19T09:01:02.648Z,399.38
2023-03-19T09:02:02.757Z,388.12
2023-03-19T09:03:02.631Z,376.88
2023-03-19T09:04:07.631Z,376.88
2023-03-19T09:05:02.602Z,371.25
2023-03-19T09:06:02.637Z,376.88
2023-03-19T09:07:02.594Z,365.62
2023-03-19T09:08:02.570Z,360.00
2023-03-19T09:09:02.584Z,365.62
2023-03-19T09:10:02.549Z,365.62
2023-03-19T09:11:02.563Z,365.62
2023-03-19T09:12:02.569Z,360.00
2023-03-19T09:13:02.510Z,343.12
2023-03-19T09:14:02.498Z,326.25
2023-03-19T09:15:07.557Z,309.38
2023-03-19T09:16:02.522Z,298.12
2023-03-19T09:17:02.470Z,298.12
2023-03-19T09:18:02.461Z,303.75
2023-03-19T09:19:02.456Z,309.38
2023-03-19T09:20:02.433Z,320.62
2023-03-19T09:21:02.445Z,326.25
2023-03-19T09:22:02.421Z,331.88
2023-03-19T09:23:02.395Z,337.50
2023-03-19T09:24:02.390Z,343.12
2023-03-19T09:25:02.385Z,360.00
2023-03-19T09:26:07.420Z,376.88
2023-03-19T09:27:02.409Z,382.50
2023-03-19T09:28:02.374Z,393.75
2023-03-19T09:29:02.335Z,405.00
2023-03-19T09:30:02.338Z,399.38
2023-03-19T09:31:02.341Z,405.00
2023-03-19T09:32:02.308Z,399.38
2023-03-19T09:33:02.390Z,399.38
2023-03-19T09:34:02.284Z,393.75
2023-03-19T09:35:02.265Z,388.12
2023-03-19T09:36:02.304Z,388.12
2023-03-19T09:37:07.275Z,399.38
2023-03-19T09:38:02.246Z,416.25
2023-03-19T09:39:02.267Z,427.50
2023-03-19T09:40:02.215Z,433.12
2023-03-19T09:41:02.200Z,461.25
2023-03-19T09:42:02.205Z,466.88
2023-03-19T09:43:02.178Z,478.12
2023-03-19T09:44:02.215Z,506.25
2023-03-19T09:45:02.231Z,545.62
2023-03-19T09:46:02.154Z,641.25
2023-03-19T09:47:02.266Z,573.75
2023-03-19T09:48:07.143Z,534.38
2023-03-19T09:49:02.112Z,517.50
2023-03-19T09:50:02.109Z,500.62
2023-03-19T09:51:02.100Z,495.00
2023-03-19T09:52:02.162Z,500.62
2023-03-19T09:53:02.066Z,495.00
2023-03-19T09:54:02.052Z,500.62
2023-03-19T09:55:02.046Z,511.88
2023-03-19T09:56:02.043Z,534.38
2023-03-19T09:57:02.034Z,540.00
2023-03-19T09:58:02.025Z,540.00
2023-03-19T09:59:07.036Z,534.38
2023-03-19T10:00:01.987Z,528.75
2023-03-19T10:01:01.976Z,714.38
2023-03-19T10:02:02.014Z,1164.38
2023-03-19T10:03:03.765Z,1681.88
2023-03-19T10:04:01.974Z,1732.50
2023-03-19T10:05:01.932Z,1563.75
2023-03-19T10:06:01.934Z,1423.12
2023-03-19T10:07:01.932Z,1018.12
2023-03-19T10:08:01.897Z,866.25
2023-03-19T10:09:01.892Z,888.75
2023-03-19T10:10:06.921Z,1248.75
2023-03-19T10:11:01.873Z,1400.62
2023-03-19T10:12:01.872Z,1546.88
2023-03-19T10:13:01.857Z,1153.12
2023-03-19T10:14:01.832Z,613.12
2023-03-19T10:15:01.849Z,753.75
2023-03-19T10:16:01.921Z,939.38
2023-03-19T10:17:01.853Z,1035.00
2023-03-19T10:18:01.795Z,1327.50
2023-03-19T10:19:01.777Z,2047.50
2023-03-19T10:20:01.773Z,1642.50
2023-03-19T10:21:06.780Z,1912.50
2023-03-19T10:22:01.743Z,871.88
2023-03-19T10:23:01.801Z,961.88
2023-03-19T10:24:01.717Z,984.38
2023-03-19T10:25:01.713Z,939.38
2023-03-19T10:26:01.706Z,787.50
2023-03-19T10:27:01.697Z,787.50
2023-03-19T10:28:01.690Z,843.75
2023-03-19T10:29:01.678Z,1057.50
2023-03-19T10:30:01.678Z,2120.62
2023-03-19T10:31:02.745Z,1260.00
2023-03-19T10:32:06.673Z,995.62
2023-03-19T10:33:01.676Z,1569.38
2023-03-19T10:34:01.608Z,787.50
2023-03-19T10:35:01.612Z,1558.12
2023-03-19T10:36:01.634Z,1710.00
2023-03-19T10:37:01.591Z,1198.12
2023-03-19T10:38:01.574Z,360.00
2023-03-19T10:39:01.558Z,315.00
2023-03-19T10:40:01.561Z,303.75
2023-03-19T10:41:01.531Z,607.50
2023-03-19T10:42:01.571Z,1321.88
2023-03-19T10:43:06.547Z,1524.38
2023-03-19T10:44:01.507Z,1636.88
2023-03-19T10:45:01.516Z,1631.25
2023-03-19T10:46:01.642Z,1749.38
2023-03-19T10:47:01.621Z,1980.00
2023-03-19T10:48:01.487Z,1968.75
2023-03-19T10:49:01.453Z,1822.50
2023-03-19T10:50:01.440Z,1406.25
2023-03-19T10:51:01.421Z,579.38
2023-03-19T10:52:01.416Z,585.00
2023-03-19T10:53:01.408Z,798.75
2023-03-19T10:54:06.434Z,787.50
2023-03-19T10:55:01.379Z,1935.00
2023-03-19T10:56:01.370Z,2210.62
2023-03-19T10:57:01.376Z,2081.25
2023-03-19T10:58:01.357Z,2615.62
2023-03-19T10:59:01.338Z,2531.25
2023-03-19T11:00:02.175Z,2520.00
2023-03-19T11:01:01.375Z,1940.62
2023-03-19T11:02:01.312Z,2323.12
2023-03-19T11:03:01.316Z,1395.00
2023-03-19T11:04:01.435Z,781.88
2023-03-19T11:05:06.293Z,675.00
2023-03-19T11:06:01.252Z,641.25
2023-03-19T11:07:01.259Z,641.25
2023-03-19T11:08:01.289Z,1113.75
2023-03-19T11:09:01.346Z,697.50
2023-03-19T11:10:01.208Z,708.75
2023-03-19T11:11:01.200Z,675.00
2023-03-19T11:12:01.243Z,787.50
2023-03-19T11:13:01.195Z,1597.50
2023-03-19T11:14:01.166Z,2025.00
2023-03-19T11:15:01.198Z,1451.25
2023-03-19T11:16:06.159Z,1693.12
2023-03-19T11:17:03.446Z,1018.12
2023-03-19T11:18:01.139Z,945.00
2023-03-19T11:19:01.135Z,568.12
2023-03-19T11:20:01.115Z,787.50
2023-03-19T11:21:01.090Z,810.00
2023-03-19T11:22:01.090Z,433.12
2023-03-19T11:23:01.181Z,393.75
2023-03-19T11:24:01.056Z,393.75
2023-03-19T11:25:01.113Z,393.75
2023-03-19T11:26:01.043Z,405.00
2023-03-19T11:27:06.069Z,438.75
2023-03-19T11:28:01.024Z,416.25
2023-03-19T11:29:00.999Z,399.38
2023-03-19T11:30:00.996Z,371.25
2023-03-19T11:31:00.988Z,348.75
2023-03-19T11:32:08.660Z,337.50
2023-03-19T11:33:02.010Z,315.00
2023-03-19T11:34:00.945Z,286.88
2023-03-19T11:35:00.957Z,292.50
2023-03-19T11:36:00.965Z,315.00
2023-03-19T11:37:00.918Z,320.62
2023-03-19T11:38:06.097Z,337.50
2023-03-19T11:39:00.891Z,360.00
2023-03-19T11:40:00.893Z,360.00
2023-03-19T11:41:00.878Z,348.75
2023-03-19T11:42:00.854Z,320.62
2023-03-19T11:43:00.875Z,298.12
2023-03-19T11:44:00.839Z,264.38
2023-03-19T11:45:00.902Z,241.88
2023-03-19T11:46:00.847Z,225.00
2023-03-19T11:47:00.806Z,213.75
2023-03-19T11:48:00.812Z,202.50
2023-03-19T11:49:05.800Z,191.25
2023-03-19T11:50:00.772Z,185.62
2023-03-19T11:51:00.833Z,185.62
2023-03-19T11:52:00.821Z,202.50
2023-03-19T11:53:00.765Z,241.88
2023-03-19T11:54:00.718Z,331.88
2023-03-19T11:55:00.724Z,343.12
2023-03-19T11:56:00.699Z,354.38
2023-03-19T11:57:00.698Z,326.25
2023-03-19T11:58:00.726Z,303.75
2023-03-19T11:59:00.680Z,281.25
2023-03-19T12:00:05.727Z,258.75
2023-03-19T12:01:00.698Z,241.88
2023-03-19T12:02:00.638Z,230.62
2023-03-19T12:03:00.634Z,213.75
2023-03-19T12:04:00.748Z,202.50
2023-03-19T12:05:00.648Z,185.62
2023-03-19T12:06:00.589Z,185.62
2023-03-19T12:07:00.608Z,185.62
2023-03-19T12:08:00.584Z,196.88
2023-03-19T12:09:00.565Z,213.75
2023-03-19T12:10:00.588Z,247.50
2023-03-19T12:11:05.591Z,275.62
2023-03-19T12:12:00.521Z,320.62
2023-03-19T12:13:00.519Z,292.50
2023-03-19T12:14:00.526Z,309.38
2023-03-19T12:15:00.498Z,343.12
2023-03-19T12:16:00.511Z,562.50
2023-03-19T12:17:00.472Z,596.25
2023-03-19T12:18:00.454Z,990.00
2023-03-19T12:19:00.478Z,534.38
2023-03-19T12:20:00.445Z,523.12
2023-03-19T12:21:00.425Z,483.75
2023-03-19T12:22:05.450Z,461.25
2023-03-19T12:23:00.417Z,450.00
2023-03-19T12:24:00.402Z,556.88
2023-03-19T12:25:00.383Z,506.25
2023-03-19T12:26:00.399Z,528.75
2023-03-19T12:27:00.395Z,551.25
2023-03-19T12:28:00.351Z,618.75
2023-03-19T12:29:00.367Z,506.25
2023-03-19T12:30:00.321Z,669.38
2023-03-19T12:31:00.339Z,483.75
2023-03-19T12:32:00.299Z,450.00
2023-03-19T12:33:05.428Z,478.12
2023-03-19T12:34:00.288Z,478.12
2023-03-19T12:35:00.265Z,450.00
2023-03-19T12:36:00.325Z,444.38
2023-03-19T12:37:00.242Z,421.88
2023-03-19T12:38:00.247Z,393.75
2023-03-19T12:39:00.244Z,348.75
2023-03-19T12:40:00.208Z,298.12
2023-03-19T12:41:00.199Z,253.12
2023-03-19T12:42:00.186Z,219.38
2023-03-19T12:43:00.173Z,191.25
2023-03-19T12:44:05.195Z,168.75
2023-03-19T12:45:00.176Z,151.88
2023-03-19T12:46:00.153Z,151.88
2023-03-19T12:47:00.233Z,168.75
2023-03-19T12:48:00.142Z,196.88
2023-03-19T12:49:00.126Z,213.75
2023-03-19T12:50:00.128Z,213.75